createdAt,value
2018-09-04T00:02:12.142Z,99541.67
2018-09-04T00:06:15.636Z,99541.33
2018-09-04T00:10:25.094Z,99552.97
2018-09-04T00:14:28.633Z,99561.48
2018-09-04T00:18:32.374Z,99556.25
2018-09-04T00:22:35.958Z,99569.66
2018-09-04T00:26:39.776Z,99565.94
2018-09-04T00:30:43.271Z,99571.02
2018-09-04T00:34:47.255Z,99575.02
2018-09-04T00:38:50.997Z,99574.92
2018-09-04T00:42:56.133Z,99586.79
2018-09-04T00:46:59.656Z,99592.59
2018-09-04T00:51:03.518Z,99595.64
2018-09-04T00:55:07.288Z,99585.27
2018-09-04T00:59:10.918Z,99592.31
2018-09-04T01:03:14.619Z,99601.17
2018-09-04T01:07:20.495Z,99594.91
2018-09-04T01:11:24.345Z,99586.61
2018-09-04T01:15:28.016Z,99584.76
2018-09-04T01:19:31.480Z,99567.34
2018-09-04T01:23:35.350Z,99561.48
2018-09-04T01:27:39.034Z,99552.09
2018-09-04T01:31:42.871Z,99541.85
2018-09-04T01:35:46.413Z,99536.44
2018-09-04T01:39:50.267Z,99519.11
2018-09-04T01:43:54.272Z,99520.91
2018-09-04T01:47:58.021Z,99512.52
2018-09-04T01:52:01.729Z,99511.25
2018-09-04T01:56:05.315Z,99508.64
2018-09-04T02:00:10.025Z,99519.82
2018-09-04T02:04:14.741Z,99514.92
2018-09-04T02:08:18.256Z,99516.27
2018-09-04T02:12:22.008Z,99511.92
2018-09-04T02:16:25.671Z,99523.97
2018-09-04T02:20:29.518Z,99525.39
2018-09-04T02:24:33.098Z,99530.42
2018-09-04T02:28:37.035Z,99538.47
2018-09-04T02:32:40.739Z,99542.42
2018-09-04T02:36:44.417Z,99544.22
2018-09-04T02:40:48.166Z,99542.38
2018-09-04T02:44:51.879Z,99539.66
2018-09-04T02:48:55.389Z,99538.67
2018-09-04T02:52:59.247Z,99537.39
2018-09-04T02:57:02.840Z,99541.34
2018-09-04T03:01:07.540Z,99537.34
2018-09-04T03:05:11.165Z,99538.20
2018-09-04T03:09:14.990Z,99531.53
2018-09-04T03:13:18.648Z,99540.86
2018-09-04T03:17:22.774Z,99538.33
2018-09-04T03:21:26.542Z,99536.05
2018-09-04T03:25:30.582Z,99547.14
2018-09-04T03:29:34.117Z,99548.56
2018-09-04T03:33:37.979Z,99555.32
2018-09-04T03:37:41.487Z,99550.51
2018-09-04T03:41:45.357Z,99539.84
2018-09-04T03:45:49.020Z,99544.27
2018-09-04T03:49:52.681Z,99551.80
2018-09-04T03:53:56.121Z,99545.90
2018-09-04T03:58:00.896Z,99547.70
2018-09-04T04:02:04.407Z,99553.08
2018-09-04T04:06:07.986Z,99558.41
2018-09-04T04:10:11.653Z,99556.94
2018-09-04T04:14:15.312Z,99546.67
2018-09-04T04:18:18.960Z,99543.75
2018-09-04T04:22:22.593Z,99550.98
2018-09-04T04:26:26.174Z,99564.35
2018-09-04T04:30:30.775Z,99565.69
2018-09-04T04:34:34.327Z,99567.36
2018-09-04T04:38:38.005Z,99561.89
2018-09-04T04:42:41.563Z,99559.13
2018-09-04T04:46:45.161Z,99559.04
2018-09-04T04:50:48.830Z,99560.33
2018-09-04T04:54:52.608Z,99558.10
2018-09-04T04:58:56.228Z,99557.70
2018-09-04T05:03:00.936Z,99571.95
2018-09-04T05:07:05.814Z,99567.52
2018-09-04T05:11:09.542Z,99561.75
2018-09-04T05:15:13.263Z,99557.75
2018-09-04T05:19:16.832Z,99555.95
2018-09-04T05:23:20.562Z,99564.81
2018-09-04T05:27:24.268Z,99559.00
2018-09-04T05:31:27.807Z,99560.63
2018-09-04T05:35:36.206Z,99559.18
2018-09-04T05:39:39.682Z,99555.48
2018-09-04T05:43:52.931Z,99555.73
2018-09-04T05:48:02.226Z,99547.58
2018-09-04T05:52:06.247Z,99534.95
2018-09-04T05:56:09.979Z,99535.15
2018-09-04T06:00:18.155Z,99536.38
2018-09-04T06:04:22.534Z,99529.58
2018-09-04T06:08:26.172Z,99525.09
2018-09-04T06:12:29.778Z,99532.15
2018-09-04T06:16:33.344Z,99522.29
2018-09-04T06:20:37.064Z,99520.47
2018-09-04T06:24:40.655Z,99517.27
2018-09-04T06:28:44.234Z,99508.64
2018-09-04T06:32:47.944Z,99504.82
2018-09-04T06:36:51.491Z,99505.42
2018-09-04T06:40:56.245Z,99507.16
2018-09-04T06:44:59.862Z,99505.75
2018-09-04T06:49:03.556Z,99501.27
2018-09-04T06:53:07.042Z,99509.98
2018-09-04T06:57:11.747Z,99515.33
2018-09-04T07:01:15.406Z,99525.31
2018-09-04T07:05:19.012Z,99522.89
2018-09-04T07:09:22.624Z,99528.56
2018-09-04T07:13:26.229Z,99528.50
2018-09-04T07:17:29.816Z,99525.89
2018-09-04T07:21:33.594Z,99530.38
2018-09-04T07:25:37.155Z,99533.43
2018-09-04T07:29:41.052Z,99535.66
2018-09-04T07:33:44.686Z,99535.56
2018-09-04T07:37:48.492Z,99530.31
2018-09-04T07:41:52.200Z,99529.36
2018-09-04T07:45:56.861Z,99540.91
2018-09-04T07:50:00.364Z,99541.69
2018-09-04T07:54:04.095Z,99541.55
2018-09-04T07:58:07.743Z,99538.76
2018-09-04T08:02:11.294Z,99531.95
2018-09-04T08:06:14.890Z,99530.44
2018-09-04T08:10:18.561Z,99531.13
2018-09-04T08:14:22.209Z,99523.25
2018-09-04T08:18:25.767Z,99519.48
2018-09-04T08:22:29.454Z,99516.95
2018-09-04T08:26:33.129Z,99520.63
2018-09-04T08:30:36.537Z,99520.98
2018-09-04T08:34:40.287Z,99532.17
2018-09-04T08:38:51.227Z,99532.24
2018-09-04T08:42:54.787Z,99525.33
2018-09-04T08:46:58.347Z,99535.72
2018-09-04T08:51:01.931Z,99534.45
2018-09-04T08:55:05.684Z,99535.98
2018-09-04T08:59:09.236Z,99526.36
2018-09-04T09:03:13.084Z,99528.68
2018-09-04T09:07:16.788Z,99532.56
2018-09-04T09:11:20.528Z,99540.98
2018-09-04T09:15:23.999Z,99544.94
2018-09-04T09:19:27.659Z,99534.64
2018-09-04T09:23:31.168Z,99531.31
2018-09-04T09:27:34.962Z,99535.03
2018-09-04T09:31:38.706Z,99535.31
2018-09-04T09:35:42.539Z,99525.39
2018-09-04T09:39:46.178Z,99525.07
2018-09-04T09:43:50.983Z,99528.13
2018-09-04T09:47:54.538Z,99528.24
2018-09-04T09:51:58.175Z,99525.05
2018-09-04T09:56:02.009Z,99526.94
2018-09-04T10:00:07.432Z,99517.69
2018-09-04T10:04:11.039Z,99523.73
2018-09-04T10:08:14.714Z,99526.16
2018-09-04T10:12:18.296Z,99531.11
2018-09-04T10:16:21.954Z,99535.55
2018-09-04T10:20:25.383Z,99535.55
2018-09-04T10:24:29.207Z,99536.95
2018-09-04T10:28:32.991Z,99532.20
2018-09-04T10:32:36.680Z,99534.81
2018-09-04T10:36:40.228Z,99546.25
2018-09-04T10:40:45.075Z,99534.38
2018-09-04T10:44:48.715Z,99539.73
2018-09-04T10:48:52.402Z,99539.60
2018-09-04T10:52:56.003Z,99525.70
2018-09-04T10:56:59.592Z,99527.97
2018-09-04T11:01:04.954Z,99527.66
2018-09-04T11:05:08.577Z,99527.20
2018-09-04T11:09:12.842Z,99526.16
2018-09-04T11:13:16.548Z,99534.06
2018-09-04T11:17:20.046Z,99532.01
2018-09-04T11:21:23.693Z,99534.20
2018-09-04T11:25:27.319Z,99528.70
2018-09-04T11:29:31.061Z,99524.52
2018-09-04T11:33:35.012Z,99528.02
2018-09-04T11:37:38.797Z,99527.46
2018-09-04T11:41:42.311Z,99521.45
2018-09-04T11:45:46.011Z,99522.45
2018-09-04T11:49:49.703Z,99512.87
2018-09-04T11:53:53.755Z,99512.08
2018-09-04T11:57:57.396Z,99502.56
2018-09-04T12:02:01.678Z,99501.34
2018-09-04T12:06:06.786Z,99504.28
2018-09-04T12:10:10.613Z,99500.83
2018-09-04T12:14:14.236Z,99494.83
2018-09-04T12:18:18.038Z,99498.64
2018-09-04T12:22:21.626Z,99497.75
2018-09-04T12:26:25.263Z,99498.50
2018-09-04T12:30:28.915Z,99497.47
2018-09-04T12:34:32.577Z,99499.52
2018-09-04T12:38:37.878Z,99486.65
2018-09-04T12:42:44.770Z,99484.38
2018-09-04T12:46:48.320Z,99484.05
2018-09-04T12:50:52.972Z,99473.31
2018-09-04T12:54:56.533Z,99474.09
2018-09-04T12:59:00.328Z,99466.77
2018-09-04T13:03:04.026Z,99467.41
2018-09-04T13:07:07.794Z,99465.91
2018-09-04T13:11:11.336Z,99454.61
2018-09-04T13:15:15.703Z,99464.56
2018-09-04T13:19:19.303Z,99458.48
2018-09-04T13:23:22.978Z,99454.51
2018-09-04T13:27:26.566Z,99456.47
2018-09-04T13:31:30.170Z,99449.20
2018-09-04T13:35:34.179Z,99457.66
2018-09-04T13:39:37.968Z,99450.70
2018-09-04T13:43:41.478Z,99445.70
2018-09-04T13:47:45.011Z,99449.50
2018-09-04T13:51:48.762Z,99447.19
2018-09-04T13:55:52.671Z,99449.81
2018-09-04T13:59:56.716Z,99457.11
2018-09-04T14:04:00.298Z,99461.94
2018-09-04T14:08:03.855Z,99472.05
2018-09-04T14:12:08.147Z,99471.12
2018-09-04T14:16:14.353Z,99476.58
2018-09-04T14:20:18.059Z,99476.42
2018-09-04T14:24:21.851Z,99474.59
2018-09-04T14:28:41.383Z,99472.77
2018-09-04T14:32:29.660Z,99480.83
2018-09-04T14:36:33.590Z,99500.95
2018-09-04T14:40:37.109Z,99507.44
2018-09-04T14:44:40.934Z,99511.59
2018-09-04T14:48:44.503Z,99507.44
2018-09-04T14:52:49.443Z,99504.05
2018-09-04T14:56:53.023Z,99503.00
2018-09-04T15:00:56.964Z,99495.50
2018-09-04T15:05:00.547Z,99488.70
2018-09-04T15:09:06.338Z,99499.94
2018-09-04T15:13:09.848Z,99485.54
2018-09-04T15:17:14.318Z,99496.91
2018-09-04T15:21:18.490Z,99495.81
2018-09-04T15:25:22.854Z,99501.41
2018-09-04T15:29:26.680Z,99496.44
2018-09-04T15:33:30.354Z,99497.37
2018-09-04T15:37:33.941Z,99503.61
2018-09-04T15:41:37.806Z,99495.03
2018-09-04T15:45:41.358Z,99485.39
2018-09-04T15:49:45.298Z,99482.64
2018-09-04T15:53:49.203Z,99486.04
2018-09-04T15:57:54.471Z,99490.22
2018-09-04T16:01:57.978Z,99502.48
2018-09-04T16:06:02.134Z,99503.49
2018-09-04T16:10:05.831Z,99502.75
2018-09-04T16:14:09.520Z,99496.75
2018-09-04T16:18:13.118Z,99497.87
2018-09-04T16:22:16.746Z,99503.23
2018-09-04T16:26:20.338Z,99505.14
2018-09-04T16:30:24.015Z,99503.47
2018-09-04T16:34:27.972Z,99510.73
2018-09-04T16:38:31.866Z,99511.92
2018-09-04T16:42:35.470Z,99516.72
2018-09-04T16:46:39.771Z,99524.20
2018-09-04T16:50:43.447Z,99532.40
2018-09-04T16:54:47.566Z,99539.73
2018-09-04T16:58:51.245Z,99530.83
2018-09-04T17:02:55.094Z,99524.27
2018-09-04T17:06:58.633Z,99528.50
2018-09-04T17:11:02.349Z,99524.03
2018-09-04T17:15:05.836Z,99523.39
2018-09-04T17:19:09.426Z,99522.19
2018-09-04T17:23:12.989Z,99537.16
2018-09-04T17:27:16.589Z,99545.44
2018-09-04T17:31:20.083Z,99560.33
2018-09-04T17:35:24.381Z,99558.72
2018-09-04T17:39:27.938Z,99562.05
2018-09-04T17:43:31.663Z,99568.66
2018-09-04T17:47:35.216Z,99567.20
2018-09-04T17:51:39.377Z,99574.66
2018-09-04T17:55:43.106Z,99595.05
2018-09-04T17:59:46.655Z,99600.61
2018-09-04T18:03:50.379Z,99606.78
2018-09-04T18:07:54.047Z,99607.20
2018-09-04T18:11:57.775Z,99613.30
2018-09-04T18:16:01.351Z,99617.19
2018-09-04T18:20:05.007Z,99628.51
2018-09-04T18:24:08.725Z,99622.48
2018-09-04T18:28:12.731Z,99627.96
2018-09-04T18:32:16.531Z,99626.24
2018-09-04T18:36:20.606Z,99633.31
2018-09-04T18:40:24.164Z,99629.02
2018-09-04T18:44:27.755Z,99637.17
2018-09-04T18:48:31.406Z,99634.61
2018-09-04T18:52:35.164Z,99635.16
2018-09-04T18:56:38.759Z,99643.25
2018-09-04T19:00:42.976Z,99641.05
2018-09-04T19:04:46.767Z,99642.86
2018-09-04T19:08:50.492Z,99650.48
2018-09-04T19:12:54.172Z,99651.40
2018-09-04T19:17:47.083Z,99652.83
2018-09-04T19:21:50.575Z,99653.34
2018-09-04T19:25:55.664Z,99652.48
2018-09-04T19:29:59.312Z,99652.16
2018-09-04T19:34:04.109Z,99653.25
2018-09-04T19:38:07.732Z,99656.47
2018-09-04T19:42:11.355Z,99655.19
2018-09-04T19:46:14.891Z,99656.08
2018-09-04T19:50:19.013Z,99661.82
2018-09-04T19:54:22.540Z,99652.39
2018-09-04T19:58:26.617Z,99652.81
2018-09-04T20:02:30.159Z,99655.48
2018-09-04T20:06:34.110Z,99655.02
2018-09-04T20:10:38.708Z,99658.67
2018-09-04T20:14:42.377Z,99656.95
2018-09-04T20:18:45.943Z,99653.53
2018-09-04T20:22:50.342Z,99655.34
2018-09-04T20:26:53.884Z,99660.70
2018-09-04T20:30:57.637Z,99658.14
2018-09-04T20:35:01.263Z,99659.06
2018-09-04T20:39:05.368Z,99672.38
2018-09-04T20:43:09.020Z,99668.42
2018-09-04T20:47:13.109Z,99679.66
2018-09-04T20:51:16.791Z,99674.05
2018-09-04T20:55:20.294Z,99676.03
2018-09-04T20:59:35.110Z,99679.75
2018-09-04T21:03:51.080Z,99686.97
2018-09-04T21:09:05.887Z,99685.62
2018-09-04T21:13:10.364Z,99691.52
2018-09-04T21:17:13.928Z,99681.23
2018-09-04T21:21:17.602Z,99681.61
2018-09-04T21:25:21.265Z,99687.38
2018-09-04T21:29:24.817Z,99671.92
2018-09-04T21:33:28.336Z,99684.83
2018-09-04T21:37:32.203Z,99676.44
2018-09-04T21:41:35.771Z,99680.39
2018-09-04T21:45:39.447Z,99680.02
2018-09-04T21:49:43.103Z,99678.78
2018-09-04T21:53:46.649Z,99676.11
2018-09-04T21:57:50.278Z,99671.68
2018-09-04T22:01:54.016Z,99683.22
2018-09-04T22:05:58.684Z,99682.32
2018-09-04T22:10:02.498Z,99685.89
2018-09-04T22:14:06.367Z,99685.00
2018-09-04T22:18:09.992Z,99686.81
2018-09-04T22:22:13.888Z,99683.33
2018-09-04T22:26:17.522Z,99686.92
2018-09-04T22:30:22.683Z,99687.87
2018-09-04T22:34:26.387Z,99684.25
2018-09-04T22:38:29.981Z,99686.92
2018-09-04T22:42:33.622Z,99694.89
2018-09-04T22:46:37.336Z,99690.94
2018-09-04T22:50:46.268Z,99695.95
2018-09-04T22:54:49.933Z,99693.28
2018-09-04T22:58:53.719Z,99692.80
2018-09-04T23:02:57.462Z,99688.37
2018-09-04T23:07:00.924Z,99689.33
2018-09-04T23:11:04.603Z,99694.79
2018-09-04T23:15:08.398Z,99701.00
2018-09-04T23:19:12.067Z,99703.23
2018-09-04T23:23:15.575Z,99703.73
2018-09-04T23:27:19.239Z,99702.87
2018-09-04T23:31:22.792Z,99691.70
2018-09-04T23:35:26.511Z,99688.58
2018-09-04T23:39:30.013Z,99696.55
2018-09-04T23:43:33.935Z,99699.66
2018-09-04T23:47:37.555Z,99703.73
2018-09-04T23:51:41.152Z,99701.42
2018-09-04T23:55:44.909Z,99709.92
2018-09-04T23:59:48.900Z,99713.93
